Time;durP1;ratioP1;P1;durP2;ratioP2;P2;SDS_P1;SDS_P2;PMS_P1;PMS_P2;Temp;Humidity;BMP_temperature;BMP_pressure;BME280_temperature;BME280_humidity;BME280_pressure;Samples;Min_cycle;Max_cycle;Signal;HPM_P1;HPM_P2
2021/08/08 00:03:56;;;;;;;0.10;0.10;;;;;;;15.54;91.57;100298.38;11157199;22;20052;-93
2021/08/08 00:08:56;;;;;;;0.10;0.10;;;;;;;15.58;90.72;100305.78;10425561;28;20033;-93
2021/08/08 00:13:57;;;;;;;0.10;0.10;;;;;;;15.59;91.03;100306.63;10401880;28;20034;-92
2021/08/08 00:18:57;;;;;;;0.10;0.10;;;;;;;15.53;91.08;100300.25;10378995;28;20504;-92
2021/08/08 00:23:58;;;;;;;0.10;0.10;;;;;;;15.50;91.56;100299.78;10393289;28;20045;-92
2021/08/08 00:29:01;;;;;;;0.03;0.03;;;;;;;15.53;91.32;100299.38;10393026;28;20029;-93
2021/08/08 00:34:02;;;;;;;0.10;0.10;;;;;;;15.46;91.53;100279.78;10390429;28;20375;-92
2021/08/08 00:39:04;;;;;;;0.10;0.10;;;;;;;15.44;91.90;100290.69;10391056;28;20034;-92
2021/08/08 00:44:10;;;;;;;0.00;0.00;;;;;;;15.38;91.85;100278.09;10375541;28;20120;-92
2021/08/08 00:49:14;;;;;;;0.10;0.10;;;;;;;15.31;91.82;100279.97;10391910;28;20128;-93
2021/08/08 00:54:14;;;;;;;0.00;0.00;;;;;;;15.35;92.22;100299.97;10402838;28;20072;-92
2021/08/08 00:59:14;;;;;;;0.10;0.10;;;;;;;15.26;92.32;100302.03;10393075;28;20464;-93
2021/08/08 01:04:20;;;;;;;0.10;0.10;;;;;;;15.12;92.24;100293.09;10391637;28;20034;-93
2021/08/08 01:09:24;;;;;;;0.03;0.03;;;;;;;14.99;92.12;100301.13;10390946;28;20030;-92
2021/08/08 01:14:26;;;;;;;0.10;0.10;;;;;;;14.89;92.28;100306.88;10390200;28;20057;-93
2021/08/08 01:19:35;;;;;;;0.03;0.03;;;;;;;14.79;92.96;100317.13;10391141;28;20030;-93
2021/08/08 01:24:37;;;;;;;0.00;0.00;;;;;;;14.63;93.42;100317.44;10388266;28;20116;-92
2021/08/08 01:29:38;;;;;;;0.10;0.10;;;;;;;14.54;93.19;100315.94;10388687;28;20029;-93
2021/08/08 01:34:38;;;;;;;0.10;0.10;;;;;;;14.39;93.30;100308.81;10386740;28;20500;-93
2021/08/08 01:39:41;;;;;;;0.10;0.10;;;;;;;14.35;93.91;100318.28;10389423;28;20034;-91
2021/08/08 01:44:48;;;;;;;0.10;0.10;;;;;;;14.33;94.32;100328.38;10373431;28;20025;-93
2021/08/08 01:49:50;;;;;;;0.00;0.00;;;;;;;14.27;94.90;100321.13;10377247;28;20509;-93
2021/08/08 01:54:53;;;;;;;0.10;0.10;;;;;;;14.23;95.20;100325.22;10398071;28;20124;-93
2021/08/08 01:59:54;;;;;;;0.10;0.10;;;;;;;14.22;94.58;100331.56;10412439;28;20119;-93
2021/08/08 02:04:54;;;;;;;0.00;0.00;;;;;;;14.15;95.37;100328.84;10382425;28;20057;-93
2021/08/08 02:10:00;;;;;;;0.10;0.10;;;;;;;14.10;95.40;100336.63;10398823;28;20120;-93
2021/08/08 02:15:01;;;;;;;0.00;0.00;;;;;;;14.00;95.47;100318.25;10395666;28;20052;-93
2021/08/08 02:20:08;;;;;;;0.10;0.10;;;;;;;13.91;95.47;100313.22;10382675;28;20040;-92
2021/08/08 02:25:08;;;;;;;0.10;0.10;;;;;;;13.91;95.42;100327.44;10379712;28;20053;-91
2021/08/08 02:30:10;;;;;;;0.00;0.00;;;;;;;13.89;95.06;100329.47;10379146;28;20053;-90
2021/08/08 02:35:12;;;;;;;0.10;0.10;;;;;;;13.82;94.80;100326.75;10397079;28;20029;-92
2021/08/08 02:40:12;;;;;;;0.10;0.10;;;;;;;13.73;94.67;100327.06;10379023;28;20044;-92
2021/08/08 02:45:13;;;;;;;0.00;0.00;;;;;;;13.70;94.55;100330.97;10394677;28;20524;-91
2021/08/08 02:50:13;;;;;;;0.03;0.03;;;;;;;13.62;94.39;100325.75;10380739;28;20073;-92
2021/08/08 02:55:14;;;;;;;0.10;0.10;;;;;;;13.62;94.68;100338.28;10393442;28;20408;-92
2021/08/08 03:00:14;;;;;;;0.10;0.10;;;;;;;13.54;94.57;100329.34;10378920;28;20084;-92
2021/08/08 03:05:18;;;;;;;0.10;0.10;;;;;;;13.64;94.63;100341.59;10395928;28;20079;-92
2021/08/08 03:10:18;;;;;;;0.10;0.10;;;;;;;13.54;94.63;100337.38;10377387;28;20265;-91
2021/08/08 03:15:19;;;;;;;0.10;0.10;;;;;;;13.58;94.85;100349.38;10377731;28;20025;-93
2021/08/08 03:20:22;;;;;;;0.10;0.10;;;;;;;13.63;94.75;100350.66;10377097;28;20032;-93
2021/08/08 03:25:22;;;;;;;0.10;0.10;;;;;;;13.69;94.98;100355.22;10394556;28;20064;-91
2021/08/08 03:30:28;;;;;;;0.10;0.10;;;;;;;13.67;94.80;100346.56;10376993;28;20064;-92
2021/08/08 03:35:29;;;;;;;0.10;0.10;;;;;;;13.65;95.16;100343.25;10375834;28;20514;-91
2021/08/08 03:40:29;;;;;;;0.08;0.08;;;;;;;13.71;94.50;100358.56;10378072;28;20124;-92
2021/08/08 03:45:29;;;;;;;0.10;0.10;;;;;;;13.79;94.28;100359.25;10395560;28;20013;-91
2021/08/08 03:50:30;;;;;;;0.00;0.00;;;;;;;13.90;94.40;100365.91;10393348;28;20253;-91
2021/08/08 03:55:30;;;;;;;0.10;0.10;;;;;;;13.97;93.98;100366.00;10376371;28;20401;-92
2021/08/08 04:00:31;;;;;;;0.00;0.00;;;;;;;14.19;93.19;100354.22;10375495;28;20029;-92
2021/08/08 04:05:31;;;;;;;0.10;0.10;;;;;;;14.54;92.09;100351.59;10392711;28;20039;-92
2021/08/08 04:10:31;;;;;;;0.10;0.10;;;;;;;14.90;91.61;100361.31;10373497;28;20067;-92
2021/08/08 04:15:32;;;;;;;0.10;0.10;;;;;;;15.59;88.18;100349.56;10374167;28;20473;-92
2021/08/08 04:20:32;;;;;;;0.10;0.10;;;;;;;16.01;86.20;100363.72;10389819;28;20064;-92
2021/08/08 04:25:33;;;;;;;0.10;0.10;;;;;;;16.26;85.15;100355.84;10393388;28;20068;-92
2021/08/08 04:30:34;;;;;;;0.10;0.10;;;;;;;15.91;85.50;100371.34;10374048;28;20029;-92
2021/08/08 04:35:37;;;;;;;0.00;0.00;;;;;;;15.49;87.29;100363.38;10370744;28;20115;-93
2021/08/08 04:40:38;;;;;;;0.10;0.10;;;;;;;15.25;87.95;100359.41;10390883;28;20117;-92
2021/08/08 04:45:38;;;;;;;0.10;0.10;;;;;;;15.26;88.54;100368.28;10376552;28;20443;-91
2021/08/08 04:50:38;;;;;;;0.10;0.10;;;;;;;15.24;88.77;100362.28;10391987;28;20037;-92
2021/08/08 04:55:38;;;;;;;0.10;0.10;;;;;;;15.24;88.84;100368.50;10394029;28;20021;-92
2021/08/08 05:00:39;;;;;;;0.10;0.10;;;;;;;15.36;88.23;100368.75;10364637;28;20095;-91
2021/08/08 05:05:39;;;;;;;0.10;0.10;;;;;;;15.41;87.95;100374.31;10393620;28;20036;-91
2021/08/08 05:10:39;;;;;;;0.10;0.10;;;;;;;15.32;88.73;100378.19;10394712;28;20325;-92
2021/08/08 05:15:40;;;;;;;0.10;0.10;;;;;;;15.27;88.68;100380.66;10393247;28;20504;-91
2021/08/08 05:20:40;;;;;;;0.00;0.00;;;;;;;15.21;89.36;100384.97;10384116;28;20452;-92
2021/08/08 05:25:41;;;;;;;0.10;0.10;;;;;;;15.18;89.50;100388.03;10393349;28;20021;-92
2021/08/08 05:30:41;;;;;;;0.10;0.10;;;;;;;15.15;89.73;100393.81;10386016;28;20026;-91
2021/08/08 05:35:41;;;;;;;0.00;0.00;;;;;;;15.28;89.54;100385.84;10381726;28;20032;-88
2021/08/08 05:40:41;;;;;;;0.10;0.10;;;;;;;17.10;84.52;100390.03;10360028;28;20381;-88
2021/08/08 05:45:46;;;;;;;0.10;0.10;;;;;;;16.91;82.12;100386.38;10379322;28;20029;-88
2021/08/08 05:50:46;;;;;;;0.10;0.10;;;;;;;16.50;84.63;100383.97;10361514;28;20455;-87
2021/08/08 05:55:47;;;;;;;0.03;0.03;;;;;;;16.23;85.50;100401.94;10379048;28;20076;-87
2021/08/08 06:00:47;;;;;;;0.10;0.10;;;;;;;15.94;86.24;100395.09;10378805;28;20084;-87
2021/08/08 06:05:48;;;;;;;0.10;0.10;;;;;;;15.67;88.20;100400.38;10399013;28;20076;-87
2021/08/08 06:10:49;;;;;;;0.10;0.10;;;;;;;15.49;89.60;100402.81;10400676;28;20119;-87
2021/08/08 06:15:49;;;;;;;0.00;0.00;;;;;;;15.35;90.67;100420.72;10410331;28;20092;-87
2021/08/08 06:20:50;;;;;;;0.10;0.10;;;;;;;15.24;91.19;100422.16;10415982;22;20109;-85
2021/08/08 06:25:51;;;;;;;0.10;0.10;;;;;;;15.19;91.37;100429.97;10380098;28;20034;-85
2021/08/08 06:30:51;;;;;;;0.10;0.10;;;;;;;15.18;91.34;100428.28;10388107;28;20045;-85
2021/08/08 06:35:52;;;;;;;0.00;0.00;;;;;;;15.15;91.98;100426.84;10377910;28;20524;-85
2021/08/08 06:40:53;;;;;;;0.10;0.10;;;;;;;15.25;91.99;100436.38;10389199;28;20037;-86
2021/08/08 06:45:53;;;;;;;0.10;0.10;;;;;;;15.37;91.84;100440.16;10380657;28;20061;-86
2021/08/08 06:50:55;;;;;;;0.00;0.00;;;;;;;15.45;92.01;100439.16;10360973;28;20092;-86
2021/08/08 06:55:55;;;;;;;0.10;0.10;;;;;;;15.49;91.40;100445.78;10372857;28;20560;-85
2021/08/08 07:00:55;;;;;;;0.10;0.10;;;;;;;15.50;91.10;100444.72;10376612;28;20073;-85
2021/08/08 07:05:56;;;;;;;0.10;0.10;;;;;;;15.56;91.81;100457.34;10338803;28;20033;-85
2021/08/08 07:10:56;;;;;;;0.10;0.10;;;;;;;15.63;91.72;100463.59;10336714;28;20113;-85
2021/08/08 07:15:56;;;;;;;0.10;0.10;;;;;;;15.58;91.55;100463.34;10368797;28;20129;-85
2021/08/08 07:20:56;;;;;;;0.10;0.10;;;;;;;15.60;91.53;100472.03;10387344;28;20493;-85
2021/08/08 07:25:57;;;;;;;0.10;0.10;;;;;;;15.72;92.13;100459.72;10379918;28;20446;-85
2021/08/08 07:30:57;;;;;;;0.00;0.00;;;;;;;15.91;91.26;100470.72;10351852;28;20088;-86
2021/08/08 07:35:57;;;;;;;0.10;0.10;;;;;;;15.95;91.19;100472.81;10372247;28;20042;-85
2021/08/08 07:40:57;;;;;;;0.00;0.00;;;;;;;15.89;91.31;100483.53;10370423;28;20035;-85
2021/08/08 07:45:58;;;;;;;0.10;0.10;;;;;;;15.86;92.09;100494.69;10361339;28;20053;-85
2021/08/08 07:50:58;;;;;;;0.00;0.00;;;;;;;15.91;91.89;100498.44;10393392;28;20063;-84
2021/08/08 07:55:59;;;;;;;0.00;0.00;;;;;;;15.96;91.91;100511.22;10373750;28;20049;-84
2021/08/08 08:00:59;;;;;;;0.00;0.00;;;;;;;16.00;91.53;100515.19;10380323;28;20327;-85
2021/08/08 08:05:59;;;;;;;0.00;0.00;;;;;;;16.19;91.72;100524.31;10379394;28;20133;-85
2021/08/08 08:11:00;;;;;;;0.10;0.10;;;;;;;16.72;90.28;100537.81;10361673;28;20065;-86
2021/08/08 08:16:00;;;;;;;0.00;0.00;;;;;;;16.71;89.35;100536.19;10374155;28;20096;-86
2021/08/08 08:21:00;;;;;;;0.07;0.07;;;;;;;16.66;89.57;100552.91;10373189;28;20049;-85
2021/08/08 08:26:01;;;;;;;0.00;0.00;;;;;;;16.98;88.87;100545.09;10379495;28;20092;-86
2021/08/08 08:31:01;;;;;;;0.10;0.10;;;;;;;17.36;87.73;100557.88;10381775;28;20218;-86
2021/08/08 08:36:03;;;;;;;0.10;0.10;;;;;;;17.56;86.64;100568.59;10394063;28;20132;-86
2021/08/08 08:41:04;;;;;;;0.00;0.00;;;;;;;17.58;85.93;100563.84;10376089;28;20080;-85
2021/08/08 08:46:05;;;;;;;0.10;0.10;;;;;;;18.03;85.94;100570.09;10375770;28;20037;-86
2021/08/08 08:51:06;;;;;;;0.10;0.10;;;;;;;18.58;83.92;100585.78;10349959;28;20022;-86
2021/08/08 08:56:08;;;;;;;0.00;0.00;;;;;;;18.54;82.18;100588.09;10383947;28;20038;-85
2021/08/08 09:01:08;;;;;;;0.08;0.08;;;;;;;18.31;82.80;100587.81;10356249;28;20076;-87
2021/08/08 09:06:08;;;;;;;0.00;0.00;;;;;;;17.90;83.36;100596.31;10356356;28;20058;-86
2021/08/08 09:11:09;;;;;;;0.10;0.10;;;;;;;17.48;84.97;100601.97;10390020;28;20080;-86
2021/08/08 09:16:13;;;;;;;0.10;0.10;;;;;;;17.38;85.60;100621.25;10369995;28;20368;-86
2021/08/08 09:21:13;;;;;;;0.10;0.10;;;;;;;17.41;85.47;100620.81;10383937;28;20041;-86
2021/08/08 09:26:14;;;;;;;0.10;0.10;;;;;;;17.40;85.53;100642.59;10372295;28;20034;-86
2021/08/08 09:31:20;;;;;;;0.10;0.10;;;;;;;17.39;84.16;100643.59;10363909;28;20053;-86
2021/08/08 09:36:21;;;;;;;0.00;0.00;;;;;;;17.42;86.10;100645.88;10366022;28;20530;-86
2021/08/08 09:41:24;;;;;;;0.10;0.10;;;;;;;17.57;84.91;100657.28;10382969;28;20133;-85
2021/08/08 09:46:24;;;;;;;;;;;;;;;17.88;83.87;100672.78;10368796;28;20041;-85
2021/08/08 09:51:25;;;;;;;0.10;0.10;;;;;;;17.91;82.49;100673.41;10368473;28;19973;-86
2021/08/08 09:56:25;;;;;;;0.10;0.10;;;;;;;18.08;82.72;100683.50;10373487;28;20128;-86
2021/08/08 10:01:25;;;;;;;0.10;0.10;;;;;;;18.36;80.56;100686.94;10371244;28;20064;-87
2021/08/08 10:06:26;;;;;;;0.00;0.00;;;;;;;18.50;80.84;100699.31;10348954;28;20117;-86
2021/08/08 10:11:28;;;;;;;0.10;0.10;;;;;;;18.54;80.26;100704.06;10374322;28;20038;-86
2021/08/08 10:16:31;;;;;;;0.03;0.03;;;;;;;18.44;79.18;100703.72;10372646;28;20034;-86
2021/08/08 10:21:33;;;;;;;0.00;0.00;;;;;;;18.37;80.04;100711.00;10377519;28;20042;-86
2021/08/08 10:26:34;;;;;;;0.10;0.10;;;;;;;18.20;79.04;100697.16;10359624;28;20063;-86
2021/08/08 10:31:34;;;;;;;0.10;0.10;;;;;;;18.64;79.68;100705.47;10385146;28;20038;-86
2021/08/08 10:36:35;;;;;;;0.00;0.00;;;;;;;19.23;76.36;100707.84;10376744;28;20375;-86
2021/08/08 10:41:37;;;;;;;0.10;0.10;;;;;;;19.31;74.81;100714.84;10376944;28;20042;-86
2021/08/08 10:46:45;;;;;;;0.10;0.10;;;;;;;19.16;76.11;100720.56;10374897;28;20030;-85
2021/08/08 10:51:56;;;;;;;0.00;0.00;;;;;;;19.06;76.58;100732.91;10391378;28;20096;-86
2021/08/08 10:56:56;;;;;;;0.10;0.10;;;;;;;19.08;76.77;100733.47;10365440;28;20035;-86
2021/08/08 11:02:08;;;;;;;0.00;0.00;;;;;;;19.20;75.27;100742.56;10376827;28;20060;-86
2021/08/08 11:07:09;;;;;;;0.00;0.00;;;;;;;19.18;75.53;100741.94;10375408;28;20297;-86
2021/08/08 11:12:10;;;;;;;0.10;0.10;;;;;;;19.00;74.83;100746.22;10375889;28;20041;-86
2021/08/08 11:17:10;;;;;;;0.10;0.10;;;;;;;18.79;76.16;100754.59;10375115;28;20030;-86
2021/08/08 11:22:16;;;;;;;0.10;0.10;;;;;;;18.74;75.91;100762.53;10366265;28;20034;-87
2021/08/08 11:27:27;;;;;;;0.10;0.10;;;;;;;19.35;74.78;100758.47;10373867;28;20037;-85
2021/08/08 11:32:28;;;;;;;0.00;0.00;;;;;;;19.97;72.75;100772.09;10363841;28;20045;-85
2021/08/08 11:37:37;;;;;;;0.00;0.00;;;;;;;20.63;71.04;100766.00;10389200;28;20041;-85
2021/08/08 11:42:38;;;;;;;0.10;0.10;;;;;;;21.18;68.93;100774.03;10374657;28;20033;-86
2021/08/08 11:47:38;;;;;;;0.05;0.05;;;;;;;21.16;68.40;100778.03;10348054;28;20501;-86
2021/08/08 11:52:39;;;;;;;0.00;0.00;;;;;;;20.57;68.69;100783.97;10375246;28;20048;-87
2021/08/08 11:57:39;;;;;;;0.00;0.00;;;;;;;20.16;68.57;100792.72;10373352;28;20037;-86
2021/08/08 12:02:40;;;;;;;0.10;0.10;;;;;;;20.42;68.05;100794.31;10356592;28;20085;-86
2021/08/08 12:07:40;;;;;;;0.10;0.10;;;;;;;20.67;68.45;100807.78;10355233;28;20117;-86
2021/08/08 12:12:41;;;;;;;0.00;0.00;;;;;;;21.10;65.14;100806.84;10385479;28;20041;-85
2021/08/08 12:17:41;;;;;;;0.10;0.10;;;;;;;21.16;67.42;100811.34;10377156;28;20037;-86
2021/08/08 12:22:41;;;;;;;0.10;0.10;;;;;;;21.42;64.43;100812.06;10458734;23;20140;-83
2021/08/08 12:27:44;;;;;;;0.10;0.10;;;;;;;21.76;63.32;100812.34;10426940;28;20029;-83
2021/08/08 12:32:45;;;;;;;0.10;0.10;;;;;;;21.57;61.96;100812.44;10427767;28;20033;-84
2021/08/08 12:37:46;;;;;;;0.10;0.10;;;;;;;21.90;62.64;100820.06;10459362;28;20041;-83
2021/08/08 12:42:47;;;;;;;0.00;0.00;;;;;;;21.63;61.85;100835.91;10443558;28;20029;-85
2021/08/08 12:47:59;;;;;;;0.10;0.10;;;;;;;21.01;62.31;100841.53;10452796;28;20025;-84
2021/08/08 12:53:01;;;;;;;0.10;0.10;;;;;;;20.85;64.59;100847.56;10469847;28;20040;-83
2021/08/08 12:58:03;;;;;;;0.10;0.10;;;;;;;21.23;64.35;100860.00;10470504;28;20053;-84
2021/08/08 13:03:03;;;;;;;0.00;0.00;;;;;;;21.34;64.17;100859.22;10460892;28;20041;-83
2021/08/08 13:08:04;;;;;;;0.00;0.00;;;;;;;21.46;64.04;100862.00;10459590;28;20025;-83
2021/08/08 13:13:04;;;;;;;0.03;0.03;;;;;;;21.30;64.03;100847.19;10452118;28;20735;-84
2021/08/08 13:18:05;;;;;;;0.10;0.10;;;;;;;20.93;65.80;100859.97;10427817;28;20095;-83
2021/08/08 13:23:05;;;;;;;0.00;0.00;;;;;;;21.00;64.90;100875.09;10427380;28;20120;-84
2021/08/08 13:28:06;;;;;;;0.00;0.00;;;;;;;21.22;64.84;100877.31;10454906;28;20108;-84
2021/08/08 13:33:07;;;;;;;0.10;0.10;;;;;;;21.27;63.30;100879.34;10460946;28;20057;-84
2021/08/08 13:38:07;;;;;;;0.00;0.00;;;;;;;20.95;63.93;100888.47;10467564;28;20040;-84
2021/08/08 13:43:08;;;;;;;0.10;0.10;;;;;;;20.75;65.01;100894.13;10486472;28;20055;-84
2021/08/08 13:48:08;;;;;;;0.10;0.10;;;;;;;20.36;67.97;100895.28;10490636;28;20028;-84
2021/08/08 13:53:09;;;;;;;0.10;0.10;;;;;;;20.02;68.38;100907.44;10474663;28;20037;-84
2021/08/08 13:58:09;;;;;;;0.00;0.00;;;;;;;19.91;68.94;100919.78;10492418;28;20053;-83
2021/08/08 14:03:16;;;;;;;0.00;0.00;;;;;;;19.86;69.02;100927.72;10466731;28;20044;-83
2021/08/08 14:08:17;;;;;;;0.10;0.10;;;;;;;20.11;70.43;100933.16;10475759;28;20152;-83
2021/08/08 14:13:17;;;;;;;0.10;0.10;;;;;;;20.49;69.45;100943.06;10483107;28;20033;-82
2021/08/08 14:18:17;;;;;;;0.10;0.10;;;;;;;20.60;68.49;100946.97;10476657;28;20029;-82
2021/08/08 14:23:17;;;;;;;0.00;0.00;;;;;;;20.80;67.53;100943.00;10476611;28;20143;-82
2021/08/08 14:28:18;;;;;;;0.00;0.00;;;;;;;20.97;64.27;100951.38;10466601;28;20021;-83
2021/08/08 14:33:18;;;;;;;0.10;0.10;;;;;;;20.94;66.08;100942.84;10473360;28;20065;-83
2021/08/08 14:38:19;;;;;;;0.10;0.10;;;;;;;20.68;66.62;100944.78;10470194;28;20677;-82
2021/08/08 14:43:19;;;;;;;0.00;0.00;;;;;;;20.53;65.41;100955.13;10477785;28;20151;-83
2021/08/08 14:48:19;;;;;;;0.00;0.00;;;;;;;20.53;65.22;100950.53;10475150;28;20037;-83
2021/08/08 14:53:20;;;;;;;0.10;0.10;;;;;;;20.65;63.34;100958.75;10471746;28;20033;-85
2021/08/08 14:58:20;;;;;;;0.00;0.00;;;;;;;20.74;62.76;100945.75;10488447;28;20125;-83
2021/08/08 15:03:21;;;;;;;0.10;0.10;;;;;;;20.82;62.99;100960.88;10471662;28;20419;-83
2021/08/08 15:08:21;;;;;;;0.00;0.00;;;;;;;20.92;61.96;100956.63;10469800;28;20300;-83
2021/08/08 15:13:22;;;;;;;0.10;0.10;;;;;;;20.98;61.04;100963.03;10460638;28;20036;-82
2021/08/08 15:18:22;;;;;;;0.10;0.10;;;;;;;20.91;60.31;100965.78;10488158;28;20037;-82
2021/08/08 15:23:22;;;;;;;0.00;0.00;;;;;;;20.89;59.86;100967.06;10472761;28;20056;-82
2021/08/08 15:28:22;;;;;;;0.00;0.00;;;;;;;20.74;58.40;100978.22;10464296;28;20029;-82
2021/08/08 15:33:23;;;;;;;0.00;0.00;;;;;;;20.64;59.58;100984.16;10473661;28;20071;-82
2021/08/08 15:38:23;;;;;;;0.00;0.00;;;;;;;20.62;59.83;100996.25;10448659;28;20030;-82
2021/08/08 15:43:24;;;;;;;0.10;0.10;;;;;;;20.69;62.02;100992.44;10446776;28;20084;-83
2021/08/08 15:48:24;;;;;;;0.10;0.10;;;;;;;20.61;60.90;101000.84;10431896;28;20030;-82
2021/08/08 15:53:25;;;;;;;0.10;0.10;;;;;;;20.57;61.55;101005.06;10431628;28;20125;-83
2021/08/08 15:58:26;;;;;;;0.00;0.00;;;;;;;20.45;60.47;101006.75;10445609;28;20052;-83
2021/08/08 16:03:26;;;;;;;0.10;0.10;;;;;;;20.31;59.87;101001.47;10429508;28;20057;-84
2021/08/08 16:08:26;;;;;;;0.00;0.00;;;;;;;20.25;60.73;101018.56;10456617;28;20025;-84
2021/08/08 16:13:26;;;;;;;0.00;0.00;;;;;;;20.16;60.66;101009.06;10468926;28;20029;-83
2021/08/08 16:18:27;;;;;;;0.10;0.10;;;;;;;20.02;59.99;101008.31;10502223;28;20120;-84
2021/08/08 16:23:27;;;;;;;0.10;0.10;;;;;;;19.90;60.68;101015.47;10489370;28;20043;-83
2021/08/08 16:28:28;;;;;;;0.00;0.00;;;;;;;19.82;61.46;101021.94;10480498;28;20025;-83
2021/08/08 16:33:28;;;;;;;0.10;0.10;;;;;;;19.79;61.90;101027.78;10483635;28;20029;-83
2021/08/08 16:38:28;;;;;;;0.10;0.10;;;;;;;19.71;61.43;101025.31;10455973;28;20569;-83
2021/08/08 16:43:28;;;;;;;0.10;0.10;;;;;;;19.68;62.26;101033.84;10440368;28;20091;-83
2021/08/08 16:48:29;;;;;;;0.00;0.00;;;;;;;19.61;60.96;101047.34;10467512;28;20077;-83
2021/08/08 16:53:29;;;;;;;0.10;0.10;;;;;;;19.60;62.24;101042.97;10490508;28;20127;-84
2021/08/08 16:58:29;;;;;;;0.00;0.00;;;;;;;19.60;61.76;101055.66;10489659;28;20059;-83
2021/08/08 17:03:30;;;;;;;0.10;0.10;;;;;;;19.47;60.76;101059.25;10463378;28;20040;-83
2021/08/08 17:08:30;;;;;;;0.00;0.00;;;;;;;19.30;60.79;101058.88;10471474;28;20040;-83
2021/08/08 17:13:30;;;;;;;0.10;0.10;;;;;;;19.18;61.88;101069.47;10490394;28;20497;-83
2021/08/08 17:18:31;;;;;;;0.00;0.00;;;;;;;19.05;62.40;101064.09;10475643;28;20033;-83
2021/08/08 17:23:31;;;;;;;0.00;0.00;;;;;;;18.95;63.89;101064.53;10472628;28;20025;-84
2021/08/08 17:28:36;;;;;;;0.10;0.10;;;;;;;18.85;64.16;101079.47;10494008;28;20039;-84
2021/08/08 17:33:36;;;;;;;0.10;0.10;;;;;;;18.73;64.82;101079.22;10476604;28;20043;-84
2021/08/08 17:38:36;;;;;;;0.10;0.10;;;;;;;18.66;65.23;101078.41;10483821;28;20527;-83
2021/08/08 17:43:37;;;;;;;0.03;0.03;;;;;;;18.55;67.06;101086.06;10468362;28;20047;-83
2021/08/08 17:48:37;;;;;;;0.10;0.10;;;;;;;18.44;67.25;101091.22;10494144;28;20393;-82
2021/08/08 17:53:38;;;;;;;0.00;0.00;;;;;;;18.30;67.92;101095.78;10478294;28;20044;-83
2021/08/08 17:58:41;;;;;;;0.10;0.10;;;;;;;18.20;68.18;101098.00;10480286;28;20029;-83
2021/08/08 18:03:42;;;;;;;0.10;0.10;;;;;;;18.12;69.51;101098.19;10475626;28;20484;-84
2021/08/08 18:08:42;;;;;;;0.10;0.10;;;;;;;17.97;69.85;101101.88;10475517;28;20033;-84
2021/08/08 18:13:42;;;;;;;0.00;0.00;;;;;;;17.90;69.43;101106.41;10482603;28;20057;-84
2021/08/08 18:18:42;;;;;;;0.00;0.00;;;;;;;17.80;70.01;101109.47;10473575;28;20086;-84
2021/08/08 18:23:43;;;;;;;0.10;0.10;;;;;;;17.70;70.44;101116.22;10481004;22;20075;-86
2021/08/08 18:28:43;;;;;;;0.10;0.10;;;;;;;17.60;70.90;101119.28;10440217;28;20436;-85
2021/08/08 18:33:44;;;;;;;0.10;0.10;;;;;;;17.46;71.42;101126.44;10439749;28;20187;-86
2021/08/08 18:38:45;;;;;;;0.08;0.08;;;;;;;17.35;70.88;101129.69;10457992;28;20092;-86
2021/08/08 18:43:45;;;;;;;0.10;0.10;;;;;;;17.23;71.02;101134.78;10458887;28;20119;-85
2021/08/08 18:48:45;;;;;;;0.00;0.00;;;;;;;17.17;71.96;101149.00;10439806;28;20889;-86
2021/08/08 18:53:46;;;;;;;0.10;0.10;;;;;;;17.11;73.18;101161.38;10457887;28;20393;-90
2021/08/08 18:58:47;;;;;;;0.10;0.10;;;;;;;17.04;73.70;101162.34;10443124;28;20275;-90
2021/08/08 19:03:47;;;;;;;0.10;0.10;;;;;;;16.94;73.44;101173.44;10458297;28;20033;-89
2021/08/08 19:08:48;;;;;;;0.00;0.00;;;;;;;16.81;74.56;101184.88;10438854;28;20040;-88
2021/08/08 19:13:49;;;;;;;0.10;0.10;;;;;;;16.68;75.36;101195.50;10473276;28;20021;-90
2021/08/08 19:18:50;;;;;;;0.10;0.10;;;;;;;16.52;75.85;101196.53;10452866;28;20450;-90
2021/08/08 19:23:50;;;;;;;0.10;0.10;;;;;;;16.39;76.50;101207.16;10453061;28;20032;-89
2021/08/08 19:28:51;;;;;;;0.10;0.10;;;;;;;16.25;76.87;101214.22;10453266;28;20514;-89
2021/08/08 19:33:51;;;;;;;0.10;0.10;;;;;;;16.14;77.50;101228.94;10452555;28;20037;-91
2021/08/08 19:38:51;;;;;;;0.10;0.10;;;;;;;15.98;78.40;101224.59;10452766;28;20036;-89
2021/08/08 19:43:52;;;;;;;0.00;0.00;;;;;;;15.79;79.15;101225.97;10451732;28;20043;-90
2021/08/08 19:48:53;;;;;;;0.00;0.00;;;;;;;15.66;79.17;101223.06;10452185;28;20025;-88
2021/08/08 19:53:53;;;;;;;0.00;0.00;;;;;;;15.51;79.44;101217.66;10452266;28;20021;-88
2021/08/08 19:58:54;;;;;;;0.00;0.00;;;;;;;15.39;80.01;101225.31;10451777;28;20029;-89
2021/08/08 20:03:54;;;;;;;0.10;0.10;;;;;;;15.22;80.18;101229.16;10451048;28;20024;-89
2021/08/08 20:08:54;;;;;;;0.10;0.10;;;;;;;15.09;79.86;101224.38;10451155;28;20055;-90
2021/08/08 20:13:55;;;;;;;0.10;0.10;;;;;;;15.06;80.55;101234.63;10448088;28;20033;-90
2021/08/08 20:18:56;;;;;;;0.10;0.10;;;;;;;14.94;80.77;101224.31;10450784;28;20565;-90
2021/08/08 20:23:56;;;;;;;0.10;0.10;;;;;;;14.90;80.69;101219.50;10446622;28;20174;-90
2021/08/08 20:28:57;;;;;;;0.10;0.10;;;;;;;14.85;81.12;101240.66;10450767;28;20250;-89
2021/08/08 20:33:58;;;;;;;0.10;0.10;;;;;;;14.93;79.04;101254.84;10482985;28;20066;-89
2021/08/08 20:39:00;;;;;;;0.10;0.10;;;;;;;15.04;78.90;101258.97;10462360;28;20036;-89
2021/08/08 20:44:01;;;;;;;0.10;0.10;;;;;;;15.03;78.40;101251.91;10452263;28;20109;-90
2021/08/08 20:49:06;;;;;;;0.10;0.10;;;;;;;14.96;78.36;101250.97;10449623;28;20027;-89
2021/08/08 20:54:07;;;;;;;0.10;0.10;;;;;;;14.86;78.49;101259.22;10449598;28;20083;-89
2021/08/08 20:59:08;;;;;;;0.00;0.00;;;;;;;14.83;77.60;101261.44;10448727;28;20036;-91
2021/08/08 21:04:08;;;;;;;0.10;0.10;;;;;;;14.71;76.59;101261.00;10451678;28;20108;-89
2021/08/08 21:09:08;;;;;;;0.10;0.10;;;;;;;14.65;76.83;101264.38;10451603;28;20021;-89
2021/08/08 21:14:09;;;;;;;0.10;0.10;;;;;;;14.56;76.79;101276.16;10450373;28;20053;-89
2021/08/08 21:19:09;;;;;;;0.10;0.10;;;;;;;14.49;75.65;101279.50;10449523;28;20040;-91
2021/08/08 21:24:10;;;;;;;0.10;0.10;;;;;;;14.38;76.04;101268.31;10452160;28;20040;-89
2021/08/08 21:29:10;;;;;;;0.10;0.10;;;;;;;14.32;76.30;101272.53;10439054;28;20033;-90
2021/08/08 21:34:10;;;;;;;0.10;0.10;;;;;;;14.27;77.22;101282.94;10450074;28;20033;-89
2021/08/08 21:39:11;;;;;;;0.10;0.10;;;;;;;14.17;77.56;101284.97;10449598;28;20403;-89
2021/08/08 21:44:11;;;;;;;0.10;0.10;;;;;;;14.09;78.17;101288.50;10442981;28;20021;-90
2021/08/08 21:49:11;;;;;;;0.10;0.10;;;;;;;13.99;78.35;101288.69;10451497;28;20504;-89
2021/08/08 21:54:12;;;;;;;0.10;0.10;;;;;;;13.94;78.56;101293.72;10449632;28;20056;-89
2021/08/08 21:59:13;;;;;;;0.10;0.10;;;;;;;13.89;78.68;101292.56;10449581;28;20040;-90
2021/08/08 22:04:13;;;;;;;0.10;0.10;;;;;;;13.78;80.02;101296.41;10452415;28;20078;-90
2021/08/08 22:09:14;;;;;;;0.10;0.10;;;;;;;13.78;79.90;101320.50;10450613;28;20162;-89
2021/08/08 22:14:14;;;;;;;0.10;0.10;;;;;;;13.68;80.62;101290.41;10454147;28;20142;-88
2021/08/08 22:19:15;;;;;;;0.10;0.10;;;;;;;13.69;81.08;101303.59;10459996;28;20411;-90
2021/08/08 22:24:15;;;;;;;0.10;0.10;;;;;;;13.66;80.82;101311.16;10472935;28;20120;-89
2021/08/08 22:29:16;;;;;;;0.10;0.10;;;;;;;13.61;80.90;101302.78;10450841;28;20123;-89
2021/08/08 22:34:17;;;;;;;0.10;0.10;;;;;;;13.64;81.69;101324.69;10454850;28;20091;-90
2021/08/08 22:39:17;;;;;;;0.10;0.10;;;;;;;13.64;81.14;101324.69;10473025;28;20494;-89
2021/08/08 22:44:17;;;;;;;0.10;0.10;;;;;;;13.60;81.25;101320.69;10477725;28;20045;-90
2021/08/08 22:49:17;;;;;;;0.10;0.10;;;;;;;13.64;81.91;101337.22;10472027;28;20087;-89
2021/08/08 22:54:18;;;;;;;0.10;0.10;;;;;;;13.54;82.12;101342.75;10454491;28;20029;-89
2021/08/08 22:59:18;;;;;;;0.10;0.10;;;;;;;13.45;82.74;101331.22;10452627;28;20031;-89
2021/08/08 23:04:18;;;;;;;0.10;0.10;;;;;;;13.47;82.97;101342.59;10444169;28;20075;-89